Time;durP1;ratioP1;P1;durP2;ratioP2;P2;SDS_P1;SDS_P2;PMS_P1;PMS_P2;Temp;Humidity;BMP_temperature;BMP_pressure;BME280_temperature;BME280_humidity;BME280_pressure;Samples;Min_cycle;Max_cycle;Signal;HPM_P1;HPM_P2
2022/10/08 00:01:06;;;;;;;18.30;12.35;;;;;;;;;;5081728;28;20127;-77
2022/10/08 00:03:33;;;;;;;31.35;21.67;;;;;;;;;;5082023;28;20383;-76
2022/10/08 00:06:04;;;;;;;31.23;24.17;;;;;;;;;;5082123;28;20024;-76
2022/10/08 00:08:30;;;;;;;25.13;18.75;;;;;;;;;;5082647;28;20082;-76
2022/10/08 00:10:57;;;;;;;24.00;17.98;;;;;;;;;;5079228;28;20613;-79
2022/10/08 00:13:23;;;;;;;21.13;15.73;;;;;;;;;;5072990;28;20036;-75
2022/10/08 00:15:48;;;;;;;16.77;12.25;;;;;;;;;;5073418;28;20020;-75
2022/10/08 00:18:14;;;;;;;19.95;15.88;;;;;;;;;;5077948;28;20024;-75
2022/10/08 00:20:39;;;;;;;19.20;14.13;;;;;;;;;;5081458;28;20451;-76
2022/10/08 00:23:05;;;;;;;17.75;14.48;;;;;;;;;;5073892;28;20024;-76
2022/10/08 00:25:30;;;;;;;22.73;18.38;;;;;;;;;;5075846;28;20028;-75
2022/10/08 00:27:55;;;;;;;21.33;17.65;;;;;;;;;;5080720;28;20482;-79
2022/10/08 00:30:21;;;;;;;21.70;18.05;;;;;;;;;;5079693;28;20031;-78
2022/10/08 00:32:46;;;;;;;18.25;16.10;;;;;;;;;;5069730;28;20417;-77
2022/10/08 00:35:11;;;;;;;16.40;13.95;;;;;;;;;;5080115;28;20027;-76
2022/10/08 00:37:37;;;;;;;23.52;17.67;;;;;;;;;;5079393;28;20451;-76
2022/10/08 00:40:03;;;;;;;24.92;20.27;;;;;;;;;;5071547;28;20474;-76
2022/10/08 00:42:28;;;;;;;31.05;21.08;;;;;;;;;;5081687;28;20431;-76
2022/10/08 00:44:56;;;;;;;19.75;13.02;;;;;;;;;;5081013;28;20027;-77
2022/10/08 00:47:39;;;;;;;17.70;11.75;;;;;;;;;;5076555;28;20055;-76
2022/10/08 00:50:11;;;;;;;11.63;9.52;;;;;;;;;;5066364;28;20103;-76
2022/10/08 00:52:40;;;;;;;11.60;9.88;;;;;;;;;;5069033;28;20147;-78
2022/10/08 00:55:06;;;;;;;15.30;10.15;;;;;;;;;;5071110;28;20036;-76
2022/10/08 00:57:35;;;;;;;14.68;11.23;;;;;;;;;;5077625;28;20494;-76
2022/10/08 01:00:05;;;;;;;18.48;13.05;;;;;;;;;;5080840;28;20040;-76
2022/10/08 01:02:31;;;;;;;16.25;12.45;;;;;;;;;;5069368;28;20131;-75
2022/10/08 01:04:56;;;;;;;23.83;17.33;;;;;;;;;;5081384;28;20514;-78
2022/10/08 01:07:34;;;;;;;25.20;19.10;;;;;;;;;;5074198;28;20024;-77
2022/10/08 01:10:19;;;;;;;29.75;20.17;;;;;;;;;;5076338;28;20038;-76
2022/10/08 01:13:04;;;;;;;27.15;18.90;;;;;;;;;;5080863;28;20439;-75
2022/10/08 01:15:38;;;;;;;28.50;17.42;;;;;;;;;;5085350;28;20085;-76
2022/10/08 01:18:22;;;;;;;15.90;12.40;;;;;;;;;;5083967;28;20028;-77
2022/10/08 01:21:06;;;;;;;16.90;12.13;;;;;;;;;;5079441;28;20550;-79
2022/10/08 01:23:34;;;;;;;19.55;13.80;;;;;;;;;;5070572;28;20012;-77
2022/10/08 01:26:18;;;;;;;20.60;14.82;;;;;;;;;;5083383;28;20024;-75
2022/10/08 01:28:55;;;;;;;24.35;16.55;;;;;;;;;;5072748;28;21232;-77
2022/10/08 01:31:23;;;;;;;21.67;14.18;;;;;;;;;;5082270;28;20020;-75
2022/10/08 01:34:03;;;;;;;16.83;12.85;;;;;;;;;;5083266;28;20483;-78
2022/10/08 01:36:35;;;;;;;18.27;12.07;;;;;;;;;;5084869;28;20028;-76
2022/10/08 01:39:03;;;;;;;23.42;15.38;;;;;;;;;;5083276;28;20028;-78
2022/10/08 01:41:30;;;;;;;17.08;12.25;;;;;;;;;;5083770;28;20035;-76
2022/10/08 01:44:09;;;;;;;17.65;13.73;;;;;;;;;;5072370;28;20459;-81
2022/10/08 01:46:36;;;;;;;14.50;11.23;;;;;;;;;;5083888;28;20631;-77
2022/10/08 01:49:06;;;;;;;13.45;10.32;;;;;;;;;;5083199;28;20107;-81
2022/10/08 01:51:34;;;;;;;13.10;9.23;;;;;;;;;;5083865;28;20035;-76
2022/10/08 01:54:05;;;;;;;17.98;12.20;;;;;;;;;;5068317;28;20036;-76
2022/10/08 01:56:31;;;;;;;14.40;11.48;;;;;;;;;;5083182;28;20111;-79
2022/10/08 01:59:00;;;;;;;15.63;11.52;;;;;;;;;;5084785;28;20036;-76
2022/10/08 02:01:36;;;;;;;12.77;10.40;;;;;;;;;;5076125;28;20073;-78
2022/10/08 02:06:49;;;;;;;16.70;13.55;;;;;;;;;;5083584;28;20035;-78
2022/10/08 02:09:14;;;;;;;21.20;16.30;;;;;;;;;;5084108;28;20085;-76
2022/10/08 02:11:40;;;;;;;28.08;21.00;;;;;;;;;;5083197;28;20032;-75
2022/10/08 02:14:06;;;;;;;31.75;22.50;;;;;;;;;;5079088;28;20060;-78
2022/10/08 02:16:32;;;;;;;20.90;14.65;;;;;;;;;;5074081;28;20085;-77
2022/10/08 02:19:10;;;;;;;17.92;12.23;;;;;;;;;;5074526;28;20032;-77
2022/10/08 02:21:36;;;;;;;15.30;10.48;;;;;;;;;;5083216;28;20115;-77
2022/10/08 02:24:08;;;;;;;52.53;31.85;;;;;;;;;;5083171;28;21058;-76
2022/10/08 02:26:39;;;;;;;36.65;21.90;;;;;;;;;;5083167;28;20158;-77
2022/10/08 02:29:15;;;;;;;37.85;21.08;;;;;;;;;;5083750;28;20038;-78
2022/10/08 02:31:46;;;;;;;26.80;17.17;;;;;;;;;;5079111;28;20047;-76
2022/10/08 02:34:50;;;;;;;11.20;9.30;;;;;;;;;;5068376;28;20038;-76
2022/10/08 02:37:16;;;;;;;14.20;10.30;;;;;;;;;;5027994;28;20029;-78
2022/10/08 02:39:58;;;;;;;13.82;10.43;;;;;;;;;;5028378;28;20033;-76
2022/10/08 02:42:26;;;;;;;17.83;12.70;;;;;;;;;;5030700;28;20459;-75
2022/10/08 02:44:54;;;;;;;15.68;12.27;;;;;;;;;;5029180;28;20433;-76
2022/10/08 02:47:22;;;;;;;11.40;8.80;;;;;;;;;;5031353;28;20052;-77
2022/10/08 02:49:53;;;;;;;11.02;7.28;;;;;;;;;;5026842;28;20053;-77
2022/10/08 02:52:20;;;;;;;76.47;64.65;;;;;;;;;;5014576;28;20044;-77
2022/10/08 02:54:47;;;;;;;83.05;63.90;;;;;;;;;;5029062;28;20076;-79
2022/10/08 02:57:14;;;;;;;55.78;41.47;;;;;;;;;;5023225;28;20124;-76
2022/10/08 02:59:41;;;;;;;40.60;31.27;;;;;;;;;;5030472;28;20043;-78
2022/10/08 03:02:08;;;;;;;27.70;19.30;;;;;;;;;;5027000;28;20148;-78
2022/10/08 03:04:33;;;;;;;32.42;22.17;;;;;;;;;;5028550;28;20107;-77
2022/10/08 03:06:59;;;;;;;26.92;16.80;;;;;;;;;;5025294;28;20037;-77
2022/10/08 03:09:27;;;;;;;21.83;15.20;;;;;;;;;;5076493;28;20031;-80
2022/10/08 03:11:53;;;;;;;19.85;13.95;;;;;;;;;;5070378;28;20019;-77
2022/10/08 03:14:19;;;;;;;19.17;13.85;;;;;;;;;;5082126;28;20089;-77
2022/10/08 03:16:45;;;;;;;71.97;63.05;;;;;;;;;;5083535;28;20096;-77
2022/10/08 03:19:12;;;;;;;32.20;23.98;;;;;;;;;;5082757;28;20035;-76
2022/10/08 03:21:39;;;;;;;26.80;19.08;;;;;;;;;;5083614;28;20103;-77
2022/10/08 03:24:11;;;;;;;30.25;22.92;;;;;;;;;;5081052;28;20385;-78
2022/10/08 03:26:37;;;;;;;17.52;13.05;;;;;;;;;;5082125;28;20050;-75
2022/10/08 03:29:02;;;;;;;21.80;14.05;;;;;;;;;;5082621;28;20059;-77
2022/10/08 03:31:28;;;;;;;48.47;30.73;;;;;;;;;;5081832;28;20043;-77
2022/10/08 03:33:53;;;;;;;65.30;43.78;;;;;;;;;;5068793;28;20381;-76
2022/10/08 03:36:20;;;;;;;40.47;30.10;;;;;;;;;;5079987;28;20460;-76
2022/10/08 03:38:45;;;;;;;55.85;40.08;;;;;;;;;;5075639;28;20119;-78
2022/10/08 03:41:11;;;;;;;122.45;89.82;;;;;;;;;;5069897;28;20012;-79
2022/10/08 03:43:36;;;;;;;123.95;91.40;;;;;;;;;;5077720;28;20105;-78
2022/10/08 03:46:02;;;;;;;101.32;74.55;;;;;;;;;;5082724;28;20087;-76
2022/10/08 03:48:28;;;;;;;49.00;34.50;;;;;;;;;;5082015;28;20032;-77
2022/10/08 03:50:54;;;;;;;65.05;54.72;;;;;;;;;;5082426;28;20051;-77
2022/10/08 03:53:21;;;;;;;44.30;37.25;;;;;;;;;;5072556;28;20024;-76
2022/10/08 03:55:46;;;;;;;53.70;46.83;;;;;;;;;;5078869;28;20063;-77
2022/10/08 03:58:12;;;;;;;22.38;17.13;;;;;;;;;;5081965;28;20056;-77
2022/10/08 04:00:37;;;;;;;16.13;12.50;;;;;;;;;;5082355;28;20035;-77
2022/10/08 04:03:02;;;;;;;19.55;13.40;;;;;;;;;;5081348;28;20071;-78
2022/10/08 04:05:28;;;;;;;14.65;12.32;;;;;;;;;;5081834;28;20028;-74
2022/10/08 04:07:53;;;;;;;18.65;14.50;;;;;;;;;;5079076;28;20056;-76
2022/10/08 04:10:18;;;;;;;18.35;14.25;;;;;;;;;;5070247;28;20036;-77
2022/10/08 04:12:44;;;;;;;15.43;12.38;;;;;;;;;;5064932;28;20039;-76
2022/10/08 04:15:09;;;;;;;18.42;13.18;;;;;;;;;;5064995;28;20023;-79
2022/10/08 04:17:35;;;;;;;18.02;14.32;;;;;;;;;;5065676;28;20032;-75
2022/10/08 04:20:00;;;;;;;14.13;11.77;;;;;;;;;;5071601;28;20038;-74
2022/10/08 04:22:25;;;;;;;15.10;11.35;;;;;;;;;;5067228;28;21221;-78
2022/10/08 04:24:51;;;;;;;13.43;11.50;;;;;;;;;;5079625;28;20393;-77
2022/10/08 04:27:16;;;;;;;11.38;10.18;;;;;;;;;;5081284;28;20036;-75
2022/10/08 04:29:41;;;;;;;14.40;12.82;;;;;;;;;;5081648;28;20031;-75
2022/10/08 04:32:07;;;;;;;24.48;19.20;;;;;;;;;;5080098;28;20488;-75
2022/10/08 04:34:32;;;;;;;32.97;24.40;;;;;;;;;;5081793;28;20040;-75
2022/10/08 04:36:57;;;;;;;31.25;24.20;;;;;;;;;;5081211;28;20118;-75
2022/10/08 04:39:23;;;;;;;25.67;19.63;;;;;;;;;;5079797;28;20032;-74
2022/10/08 04:41:48;;;;;;;22.80;15.55;;;;;;;;;;5080726;28;20086;-77
2022/10/08 04:44:13;;;;;;;20.10;11.85;;;;;;;;;;5081594;28;20032;-76
2022/10/08 04:46:39;;;;;;;14.25;11.38;;;;;;;;;;5081650;28;20044;-77
2022/10/08 04:49:04;;;;;;;12.25;9.50;;;;;;;;;;5082891;28;20101;-80
2022/10/08 04:51:30;;;;;;;13.05;9.90;;;;;;;;;;5085496;28;20039;-76
2022/10/08 04:53:55;;;;;;;17.40;12.95;;;;;;;;;;5085551;28;20036;-76
2022/10/08 04:56:24;;;;;;;17.65;15.23;;;;;;;;;;5085144;28;20686;-76
2022/10/08 04:58:50;;;;;;;21.60;19.15;;;;;;;;;;5085192;28;20043;-76
2022/10/08 05:01:17;;;;;;;50.75;38.63;;;;;;;;;;5085414;28;20055;-76
2022/10/08 05:03:44;;;;;;;92.65;66.65;;;;;;;;;;5085250;28;20027;-77
2022/10/08 05:06:10;;;;;;;49.50;36.35;;;;;;;;;;5085439;28;20431;-76
2022/10/08 05:08:35;;;;;;;45.25;37.90;;;;;;;;;;5078614;28;20936;-78
2022/10/08 05:11:01;;;;;;;32.40;24.27;;;;;;;;;;5063182;28;20076;-78
2022/10/08 05:13:26;;;;;;;21.63;18.52;;;;;;;;;;5082189;28;20172;-77
2022/10/08 05:15:52;;;;;;;18.80;16.90;;;;;;;;;;5077751;28;20028;-77
2022/10/08 05:18:17;;;;;;;20.55;17.05;;;;;;;;;;5067256;28;20443;-77
2022/10/08 05:20:42;;;;;;;18.23;16.33;;;;;;;;;;5082673;28;20031;-76
2022/10/08 05:23:08;;;;;;;19.00;15.57;;;;;;;;;;5069004;28;20027;-77
2022/10/08 05:25:33;;;;;;;17.02;14.52;;;;;;;;;;5067658;28;20435;-77
2022/10/08 05:28:00;;;;;;;16.75;14.98;;;;;;;;;;5068834;28;20028;-74
2022/10/08 05:30:25;;;;;;;13.82;12.52;;;;;;;;;;5074716;28;20023;-76
2022/10/08 05:32:50;;;;;;;10.75;9.70;;;;;;;;;;5084709;28;20414;-76
2022/10/08 05:35:16;;;;;;;10.63;9.63;;;;;;;;;;5084595;28;20035;-76
2022/10/08 05:37:41;;;;;;;12.07;10.48;;;;;;;;;;5070046;28;20032;-75
2022/10/08 05:40:07;;;;;;;19.38;16.38;;;;;;;;;;5070367;28;20442;-75
2022/10/08 05:42:32;;;;;;;29.33;22.05;;;;;;;;;;5069450;28;20032;-75
2022/10/08 05:44:57;;;;;;;24.17;21.10;;;;;;;;;;5070256;28;20035;-75
2022/10/08 05:47:23;;;;;;;22.65;20.25;;;;;;;;;;5068958;28;20040;-77
2022/10/08 05:49:48;;;;;;;37.13;29.70;;;;;;;;;;5070678;28;20016;-81
2022/10/08 05:52:13;;;;;;;43.92;36.97;;;;;;;;;;5084646;28;20020;-79
2022/10/08 05:54:39;;;;;;;46.95;36.88;;;;;;;;;;5072325;28;20089;-80
2022/10/08 05:57:04;;;;;;;39.97;34.53;;;;;;;;;;5083324;28;20028;-77
2022/10/08 05:59:29;;;;;;;32.58;28.65;;;;;;;;;;5083448;28;20103;-76
2022/10/08 06:01:55;;;;;;;36.72;31.67;;;;;;;;;;5085053;28;20032;-77
2022/10/08 06:04:20;;;;;;;47.40;35.13;;;;;;;;;;5072309;28;20939;-77
2022/10/08 06:06:46;;;;;;;42.83;34.72;;;;;;;;;;5083323;28;20026;-77
2022/10/08 06:09:13;;;;;;;47.40;34.58;;;;;;;;;;5081104;28;20028;-76
2022/10/08 06:11:39;;;;;;;60.22;46.33;;;;;;;;;;5074992;28;20107;-76
2022/10/08 06:14:05;;;;;;;53.25;39.35;;;;;;;;;;5082785;28;20503;-79
2022/10/08 06:16:31;;;;;;;45.00;33.65;;;;;;;;;;5083816;28;20027;-79
2022/10/08 06:18:57;;;;;;;46.85;39.47;;;;;;;;;;5082438;28;20021;-75
2022/10/08 06:21:23;;;;;;;56.75;46.33;;;;;;;;;;5083199;28;20023;-76
2022/10/08 06:23:53;;;;;;;60.03;51.60;;;;;;;;;;5073508;28;20016;-76
2022/10/08 06:26:18;;;;;;;;;;;;;;;;;;5067169;28;20093;-77
2022/10/08 06:28:44;;;;;;;46.05;41.08;;;;;;;;;;5068808;28;20304;-77
2022/10/08 06:31:10;;;;;;;40.28;32.85;;;;;;;;;;5067979;28;20048;-81
2022/10/08 06:33:35;;;;;;;34.13;28.42;;;;;;;;;;5068979;28;20028;-79
2022/10/08 06:36:04;;;;;;;44.15;36.33;;;;;;;;;;5069057;28;20038;-79
2022/10/08 06:38:29;;;;;;;78.20;62.50;;;;;;;;;;5068254;28;20051;-79
2022/10/08 06:40:58;;;;;;;44.40;35.33;;;;;;;;;;5067382;28;20064;-80
2022/10/08 06:43:23;;;;;;;32.42;27.15;;;;;;;;;;5067793;28;20035;-80
2022/10/08 06:45:49;;;;;;;28.67;25.33;;;;;;;;;;5065386;28;20052;-80
2022/10/08 06:48:14;;;;;;;36.85;32.15;;;;;;;;;;5068008;28;20216;-79
2022/10/08 06:50:40;;;;;;;29.75;24.33;;;;;;;;;;5066579;28;20351;-77
2022/10/08 06:53:06;;;;;;;22.30;19.95;;;;;;;;;;5067515;28;21114;-78
2022/10/08 06:55:32;;;;;;;23.65;21.08;;;;;;;;;;5068146;28;21057;-77
2022/10/08 06:57:58;;;;;;;31.08;23.27;;;;;;;;;;5067241;28;20031;-78
2022/10/08 07:00:23;;;;;;;35.42;29.25;;;;;;;;;;5068183;28;20023;-76
2022/10/08 07:02:48;;;;;;;35.30;27.67;;;;;;;;;;5067517;28;20020;-77
2022/10/08 07:05:14;;;;;;;25.70;20.58;;;;;;;;;;5068203;28;20089;-76
2022/10/08 07:07:39;;;;;;;23.65;19.00;;;;;;;;;;5067834;28;20035;-77
2022/10/08 07:10:05;;;;;;;21.20;17.00;;;;;;;;;;5067741;28;20023;-78
2022/10/08 07:12:31;;;;;;;22.48;17.45;;;;;;;;;;5070618;28;20038;-77
2022/10/08 07:14:57;;;;;;;28.50;23.58;;;;;;;;;;5066053;28;20125;-78
2022/10/08 07:17:24;;;;;;;90.95;81.03;;;;;;;;;;5067424;28;20443;-77
2022/10/08 07:19:50;;;;;;;55.17;45.67;;;;;;;;;;5064298;28;20032;-78
2022/10/08 07:22:15;;;;;;;31.10;24.50;;;;;;;;;;5066912;28;20144;-76
2022/10/08 07:24:40;;;;;;;32.30;22.48;;;;;;;;;;5064875;28;20028;-77
2022/10/08 07:27:06;;;;;;;34.08;24.23;;;;;;;;;;5064557;28;20024;-76
2022/10/08 07:29:31;;;;;;;41.25;27.60;;;;;;;;;;5063447;28;20409;-77
2022/10/08 07:31:56;;;;;;;46.28;36.80;;;;;;;;;;5064360;28;20027;-76
2022/10/08 07:34:22;;;;;;;108.45;58.30;;;;;;;;;;5061520;28;20067;-78
2022/10/08 07:36:47;;;;;;;68.00;38.67;;;;;;;;;;5066467;28;20024;-77
2022/10/08 07:39:14;;;;;;;43.50;30.73;;;;;;;;;;5062439;28;20032;-78
2022/10/08 07:41:39;;;;;;;28.88;20.98;;;;;;;;;;5063581;28;20032;-78
2022/10/08 07:44:07;;;;;;;18.95;12.20;;;;;;;;;;5066175;28;20036;-78
2022/10/08 07:46:33;;;;;;;18.63;11.25;;;;;;;;;;5061764;28;20059;-77
2022/10/08 07:49:00;;;;;;;14.82;10.23;;;;;;;;;;5065962;28;20020;-76
2022/10/08 07:51:26;;;;;;;9.10;7.90;;;;;;;;;;5066961;28;20027;-78
2022/10/08 07:53:52;;;;;;;9.80;8.80;;;;;;;;;;5067413;28;20059;-77
2022/10/08 07:56:18;;;;;;;9.82;8.82;;;;;;;;;;5065717;28;20075;-78
2022/10/08 07:58:44;;;;;;;10.32;7.28;;;;;;;;;;5073813;28;20024;-77
2022/10/08 08:01:13;;;;;;;10.98;7.90;;;;;;;;;;5065105;28;20035;-76
2022/10/08 08:03:38;;;;;;;16.08;8.50;;;;;;;;;;5065701;28;20085;-77
2022/10/08 08:06:05;;;;;;;13.85;11.07;;;;;;;;;;5065780;28;20032;-77
2022/10/08 08:08:30;;;;;;;11.80;9.88;;;;;;;;;;5079725;28;20405;-75
2022/10/08 08:10:59;;;;;;;19.60;17.80;;;;;;;;;;5068772;28;20061;-78
2022/10/08 08:13:24;;;;;;;13.80;7.93;;;;;;;;;;5062236;28;20126;-77
2022/10/08 08:16:00;;;;;;;10.55;7.85;;;;;;;;;;5077382;28;20032;-78
2022/10/08 08:18:29;;;;;;;10.13;7.50;;;;;;;;;;5079556;28;20074;-79
2022/10/08 08:21:01;;;;;;;10.47;7.57;;;;;;;;;;5079948;28;20748;-78
2022/10/08 08:23:28;;;;;;;10.93;7.47;;;;;;;;;;5081466;28;20024;-78
2022/10/08 08:25:53;;;;;;;16.80;8.18;;;;;;;;;;5083467;28;20463;-78
2022/10/08 08:28:18;;;;;;;8.82;7.32;;;;;;;;;;5083483;28;20020;-79
2022/10/08 08:30:44;;;;;;;13.02;9.18;;;;;;;;;;5083266;28;20680;-78
2022/10/08 08:33:09;;;;;;;10.20;9.02;;;;;;;;;;5082838;28;20749;-78
2022/10/08 08:35:34;;;;;;;7.82;7.03;;;;;;;;;;5083407;28;20039;-79
2022/10/08 08:38:00;;;;;;;10.15;7.78;;;;;;;;;;5085581;28;20093;-79
2022/10/08 08:40:26;;;;;;;11.55;10.40;;;;;;;;;;5084897;28;20024;-79
2022/10/08 08:42:54;;;;;;;17.02;9.27;;;;;;;;;;5083841;28;20028;-78
2022/10/08 08:45:24;;;;;;;12.00;9.02;;;;;;;;;;5082959;28;20024;-77
2022/10/08 08:47:54;;;;;;;12.77;8.65;;;;;;;;;;5083927;28;20032;-79
2022/10/08 08:50:27;;;;;;;14.20;9.85;;;;;;;;;;5084672;28;20099;-78
2022/10/08 08:52:52;;;;;;;10.40;9.30;;;;;;;;;;5084214;28;20032;-81
2022/10/08 08:55:19;;;;;;;10.15;6.75;;;;;;;;;;5083974;28;20043;-78
2022/10/08 08:57:47;;;;;;;11.48;10.23;;;;;;;;;;5083968;28;20120;-78
2022/10/08 09:00:14;;;;;;;10.65;9.60;;;;;;;;;;5083565;28;21201;-79
2022/10/08 09:02:48;;;;;;;10.07;8.40;;;;;;;;;;5084615;28;20020;-79
2022/10/08 09:05:14;;;;;;;8.80;6.57;;;;;;;;;;5083542;28;20026;-78
2022/10/08 09:07:43;;;;;;;10.27;6.38;;;;;;;;;;5084056;28;20107;-80
2022/10/08 09:10:12;;;;;;;8.63;7.00;;;;;;;;;;5084012;28;20020;-77
2022/10/08 09:12:43;;;;;;;13.07;7.85;;;;;;;;;;5075094;28;20035;-79
2022/10/08 09:15:16;;;;;;;9.40;6.82;;;;;;;;;;5080206;28;20182;-80
2022/10/08 09:17:43;;;;;;;7.60;5.82;;;;;;;;;;5083101;28;20124;-79
2022/10/08 09:20:12;;;;;;;8.98;6.43;;;;;;;;;;5084271;28;20047;-79
2022/10/08 09:22:37;;;;;;;;;;;;;;;;;;5083783;28;20016;-77
2022/10/08 09:25:05;;;;;;;17.00;15.20;;;;;;;;;;5083456;28;19969;-78
2022/10/08 09:27:42;;;;;;;8.20;7.30;;;;;;;;;;5082693;28;20435;-80
2022/10/08 09:30:37;;;;;;;9.55;7.13;;;;;;;;;;5084335;28;20024;-79
2022/10/08 09:33:23;;;;;;;21.70;18.80;;;;;;;;;;5069382;28;20044;-79
2022/10/08 09:35:49;;;;;;;9.13;7.88;;;;;;;;;;5070256;28;20423;-80
2022/10/08 09:38:21;;;;;;;15.48;13.98;;;;;;;;;;5083376;28;20023;-79
2022/10/08 09:41:00;;;;;;;20.90;18.70;;;;;;;;;;5083857;28;20366;-81
2022/10/08 09:43:25;;;;;;;;;;;;;;;;;;5082164;28;20034;-80
2022/10/08 09:45:53;;;;;;;14.50;13.13;;;;;;;;;;5081916;28;19920;-79
2022/10/08 09:48:23;;;;;;;7.68;6.85;;;;;;;;;;5083068;28;20106;-77
2022/10/08 09:50:51;;;;;;;15.80;14.13;;;;;;;;;;5084390;28;20028;-78
2022/10/08 09:53:17;;;;;;;8.83;7.97;;;;;;;;;;5081170;28;20483;-78
2022/10/08 09:55:52;;;;;;;9.60;6.75;;;;;;;;;;5083396;28;20248;-80
2022/10/08 09:58:18;;;;;;;6.72;6.03;;;;;;;;;;5083438;28;20099;-78
2022/10/08 10:00:43;;;;;;;12.18;10.90;;;;;;;;;;5083596;28;20027;-77
2022/10/08 10:03:15;;;;;;;9.63;8.43;;;;;;;;;;5082734;28;20036;-78
2022/10/08 10:05:40;;;;;;;17.80;15.85;;;;;;;;;;5083080;28;20024;-78
2022/10/08 10:08:14;;;;;;;12.35;10.43;;;;;;;;;;5082450;28;20360;-82
2022/10/08 10:10:43;;;;;;;9.05;7.47;;;;;;;;;;5083019;28;20020;-79
2022/10/08 10:13:09;;;;;;;;;;;;;;;;;;5082819;28;20466;-78
2022/10/08 10:15:39;;;;;;;8.40;7.53;;;;;;;;;;5081836;28;19904;-78
2022/10/08 10:18:10;;;;;;;14.32;7.00;;;;;;;;;;5083394;28;20031;-78
2022/10/08 10:20:37;;;;;;;9.05;7.10;;;;;;;;;;5081312;28;20435;-80
2022/10/08 10:23:06;;;;;;;7.70;6.53;;;;;;;;;;5082026;28;20058;-78
2022/10/08 10:25:35;;;;;;;6.57;5.30;;;;;;;;;;5082880;28;20031;-79
2022/10/08 10:28:05;;;;;;;12.27;7.75;;;;;;;;;;5082026;28;20057;-78
2022/10/08 10:30:34;;;;;;;12.07;6.90;;;;;;;;;;5082622;28;20346;-77
2022/10/08 10:32:59;;;;;;;;;;;;;;;;;;5082707;28;20355;-78
2022/10/08 10:35:29;;;;;;;6.57;5.20;;;;;;;;;;5081438;28;19912;-78
2022/10/08 10:38:13;;;;;;;5.25;4.65;;;;;;;;;;5082704;28;20020;-79
2022/10/08 10:40:44;;;;;;;8.68;7.78;;;;;;;;;;5082624;28;20016;-79
2022/10/08 10:43:12;;;;;;;10.90;8.27;;;;;;;;;;5082321;28;20363;-79
2022/10/08 10:45:38;;;;;;;5.63;5.13;;;;;;;;;;5081371;28;20128;-80
2022/10/08 10:48:06;;;;;;;6.10;4.80;;;;;;;;;;5081267;28;20032;-77
2022/10/08 10:50:35;;;;;;;5.45;4.88;;;;;;;;;;5081670;28;20039;-77
2022/10/08 10:53:07;;;;;;;5.57;4.38;;;;;;;;;;5081959;28;20110;-78
2022/10/08 10:55:51;;;;;;;6.90;4.20;;;;;;;;;;5080482;28;20669;-78
2022/10/08 10:58:27;;;;;;;4.97;3.83;;;;;;;;;;5080453;28;20032;-77
2022/10/08 11:00:55;;;;;;;6.45;4.28;;;;;;;;;;5081208;28;20036;-82
2022/10/08 11:03:27;;;;;;;9.07;4.45;;;;;;;;;;5081727;28;20036;-78
2022/10/08 11:05:57;;;;;;;4.70;3.75;;;;;;;;;;5081075;28;20024;-78
2022/10/08 11:08:24;;;;;;;10.70;5.35;;;;;;;;;;5082551;28;20137;-75
2022/10/08 11:10:49;;;;;;;5.40;4.90;;;;;;;;;;5082280;28;20051;-76
2022/10/08 11:13:33;;;;;;;8.88;4.90;;;;;;;;;;5082455;28;20438;-79
2022/10/08 11:15:58;;;;;;;6.30;4.47;;;;;;;;;;5081343;28;20028;-76
2022/10/08 11:18:29;;;;;;;5.40;4.90;;;;;;;;;;5081185;28;20019;-78
2022/10/08 11:21:11;;;;;;;5.15;4.65;;;;;;;;;;5080018;28;20078;-76
2022/10/08 11:23:37;;;;;;;8.75;5.35;;;;;;;;;;5081242;28;20036;-76
2022/10/08 11:26:28;;;;;;;6.55;5.20;;;;;;;;;;5081217;28;20367;-76
2022/10/08 11:28:54;;;;;;;5.50;4.40;;;;;;;;;;5076700;28;20374;-75
2022/10/08 11:31:19;;;;;;;7.07;4.50;;;;;;;;;;5079591;28;20495;-78
2022/10/08 11:33:45;;;;;;;6.32;5.00;;;;;;;;;;5081603;28;20104;-77
2022/10/08 11:36:10;;;;;;;9.25;7.07;;;;;;;;;;5081294;28;20024;-75
2022/10/08 11:38:39;;;;;;;5.40;4.90;;;;;;;;;;5081055;28;20389;-81
2022/10/08 11:41:23;;;;;;;4.60;3.92;;;;;;;;;;5080691;28;20107;-78
2022/10/08 11:43:57;;;;;;;6.45;4.20;;;;;;;;;;5081104;28;20066;-76
2022/10/08 11:46:27;;;;;;;6.60;4.15;;;;;;;;;;5080867;28;20546;-75
2022/10/08 11:49:16;;;;;;;5.00;4.03;;;;;;;;;;5080670;28;20020;-75
2022/10/08 11:51:42;;;;;;;6.50;3.53;;;;;;;;;;5061668;28;20044;-74
2022/10/08 11:54:17;;;;;;;3.65;3.33;;;;;;;;;;5079924;28;20475;-78
2022/10/08 11:56:51;;;;;;;3.10;2.80;;;;;;;;;;5080826;28;20043;-77
2022/10/08 11:59:29;;;;;;;5.28;3.67;;;;;;;;;;5080016;28;20081;-74
2022/10/08 12:01:59;;;;;;;6.10;4.33;;;;;;;;;;5081076;28;20024;-75
2022/10/08 12:04:29;;;;;;;3.40;3.05;;;;;;;;;;5080200;28;20031;-78
2022/10/08 12:07:06;;;;;;;7.10;3.47;;;;;;;;;;5079731;28;20020;-77
2022/10/08 12:09:55;;;;;;;3.92;3.20;;;;;;;;;;5079898;28;20078;-76
2022/10/08 12:12:21;;;;;;;6.80;4.93;;;;;;;;;;5073578;28;20036;-77
2022/10/08 12:14:47;;;;;;;8.40;6.18;;;;;;;;;;5080324;28;20792;-77
2022/10/08 12:17:13;;;;;;;5.70;3.83;;;;;;;;;;5081488;28;20032;-76
2022/10/08 12:19:42;;;;;;;3.88;3.05;;;;;;;;;;5081411;28;20720;-77
2022/10/08 12:22:14;;;;;;;4.10;3.10;;;;;;;;;;5080997;28;20088;-76
2022/10/08 12:24:39;;;;;;;5.35;3.42;;;;;;;;;;5080766;28;20046;-77
2022/10/08 12:27:16;;;;;;;6.60;3.20;;;;;;;;;;5078601;28;20336;-77
2022/10/08 12:29:51;;;;;;;5.22;3.35;;;;;;;;;;5080574;28;20016;-77
2022/10/08 12:32:16;;;;;;;4.68;3.83;;;;;;;;;;5079421;28;20028;-78
2022/10/08 12:34:42;;;;;;;5.82;4.85;;;;;;;;;;5080246;28;20443;-78
2022/10/08 12:37:30;;;;;;;5.00;3.55;;;;;;;;;;5081263;28;20035;-77
2022/10/08 12:39:58;;;;;;;9.32;3.55;;;;;;;;;;5074234;28;20036;-78
2022/10/08 12:42:26;;;;;;;3.53;3.22;;;;;;;;;;5080184;28;20024;-78
2022/10/08 12:44:57;;;;;;;7.53;3.70;;;;;;;;;;5080747;28;20024;-76
2022/10/08 12:47:26;;;;;;;6.65;3.60;;;;;;;;;;5079098;28;20059;-75
2022/10/08 12:49:56;;;;;;;10.10;9.10;;;;;;;;;;5080859;28;20092;-78
2022/10/08 12:52:21;;;;;;;4.75;4.20;;;;;;;;;;5079669;28;20028;-75
2022/10/08 12:54:50;;;;;;;3.97;3.30;;;;;;;;;;5079432;28;20097;-76
2022/10/08 12:57:24;;;;;;;3.50;3.20;;;;;;;;;;5080800;28;20393;-78
2022/10/08 12:59:50;;;;;;;8.10;4.20;;;;;;;;;;5080821;28;20016;-76
2022/10/08 13:02:24;;;;;;;4.15;3.75;;;;;;;;;;5080116;28;20028;-77
2022/10/08 13:04:49;;;;;;;9.75;3.55;;;;;;;;;;5079483;28;20077;-75
2022/10/08 13:07:23;;;;;;;5.28;3.88;;;;;;;;;;5079810;28;20451;-77
2022/10/08 13:09:52;;;;;;;4.47;3.70;;;;;;;;;;5082728;28;20034;-76
2022/10/08 13:12:18;;;;;;;4.22;3.65;;;;;;;;;;5083743;28;20102;-78
2022/10/08 13:14:43;;;;;;;4.00;3.25;;;;;;;;;;5084483;28;20044;-77
2022/10/08 13:17:25;;;;;;;4.85;3.25;;;;;;;;;;5083638;28;20104;-78
2022/10/08 13:20:01;;;;;;;4.85;3.65;;;;;;;;;;5083412;28;20031;-78
2022/10/08 13:22:26;;;;;;;4.68;3.72;;;;;;;;;;5083407;28;20024;-77
2022/10/08 13:24:52;;;;;;;5.10;4.68;;;;;;;;;;5083849;28;20847;-78
2022/10/08 13:27:39;;;;;;;6.63;4.60;;;;;;;;;;5082847;28;20087;-76
2022/10/08 13:30:21;;;;;;;4.50;3.58;;;;;;;;;;5081171;28;20027;-77
2022/10/08 13:32:46;;;;;;;6.07;3.47;;;;;;;;;;5083381;28;20024;-75
2022/10/08 13:35:19;;;;;;;4.88;3.45;;;;;;;;;;5083879;28;20117;-77
2022/10/08 13:37:49;;;;;;;5.90;3.42;;;;;;;;;;5082842;28;20439;-76
2022/10/08 13:40:16;;;;;;;3.92;3.53;;;;;;;;;;5082961;28;20469;-77
2022/10/08 13:42:47;;;;;;;4.13;3.67;;;;;;;;;;5083303;28;20016;-75
2022/10/08 13:45:17;;;;;;;3.47;3.17;;;;;;;;;;5082374;28;20093;-76
2022/10/08 13:47:42;;;;;;;4.70;3.80;;;;;;;;;;5082736;28;20032;-77
2022/10/08 13:50:08;;;;;;;5.35;3.22;;;;;;;;;;5081443;28;20077;-77
2022/10/08 13:52:34;;;;;;;4.13;2.70;;;;;;;;;;5081838;28;20028;-78
2022/10/08 13:55:00;;;;;;;7.10;3.55;;;;;;;;;;5082029;28;20040;-76
2022/10/08 13:57:25;;;;;;;6.22;3.70;;;;;;;;;;5081890;28;20047;-77
2022/10/08 13:59:51;;;;;;;6.15;4.03;;;;;;;;;;5082001;28;20028;-77
2022/10/08 14:02:16;;;;;;;6.55;3.72;;;;;;;;;;5080598;28;20028;-75
2022/10/08 14:04:41;;;;;;;4.97;3.55;;;;;;;;;;5082784;28;20043;-77
2022/10/08 14:07:17;;;;;;;4.53;3.45;;;;;;;;;;5081572;28;20032;-75
2022/10/08 14:09:43;;;;;;;6.47;3.30;;;;;;;;;;5080836;28;20444;-77
2022/10/08 14:12:08;;;;;;;5.00;3.22;;;;;;;;;;5082071;28;20118;-76
2022/10/08 14:14:33;;;;;;;4.47;4.07;;;;;;;;;;5082644;28;20056;-76
2022/10/08 14:16:59;;;;;;;6.45;3.35;;;;;;;;;;5082012;28;20032;-77
2022/10/08 14:19:24;;;;;;;4.82;3.80;;;;;;;;;;5083232;28;20323;-77
2022/10/08 14:21:51;;;;;;;6.35;3.65;;;;;;;;;;5081507;28;20161;-77
2022/10/08 14:24:17;;;;;;;5.40;3.45;;;;;;;;;;5082273;28;20115;-77
2022/10/08 14:26:42;;;;;;;3.85;3.33;;;;;;;;;;5081217;28;20209;-78
2022/10/08 14:29:07;;;;;;;3.97;3.60;;;;;;;;;;5081652;28;20035;-76
2022/10/08 14:31:33;;;;;;;3.95;3.33;;;;;;;;;;5081681;28;20498;-77
2022/10/08 14:33:59;;;;;;;4.93;3.55;;;;;;;;;;5081716;28;20027;-76
2022/10/08 14:36:38;;;;;;;3.42;3.20;;;;;;;;;;5082092;28;20058;-78
2022/10/08 14:39:04;;;;;;;4.03;3.28;;;;;;;;;;5081724;28;20088;-78